Portada
METAR-TAF:

METAR-TAF

Aeroports :

Key West, Florida, Estats Units d'Amèrica

latitud: 24-33-13N, longitud: 081-45-13W, altitud: 1 m

Observació

L'informe es va fer fa 52 minuts, a les 23:53 UTC
Vent 4 kt del Sud-Est
Temperatura 26°C
Humitat 65%
Pressió 1014 hPa
Visibilitat: 16.1 km
Cel clar

METAR: KEYW 152353Z 14004KT 10SM CLR 26/19 A2994 RMK AO2 SLP138 T02560194 10278 20256 50003

Hora: 20:45 (00:45 UTC)

Pronòstic

L'informe es va fer fa 7 hores i 8 minuts, a les 17:37 UTC
Pronòstic vàlid del 15 a les 18 UTC al 16 a les 18 UTC
Vent 10 kt del Sud/Sud-Est
Visibilitat: 10 km
Núvols disperses a una alçada de 2500 ft
A partir de les 15 a les 2100 UTC
Vent 7 kt del Sud/Sud-Est
Visibilitat: 10 km
Núvols disperses a una alçada de 2500 ft
A partir de les 16 a les 1100 UTC
Vent 7 kt del Sud/Sud-Oest
Visibilitat: 10 km
Núvols disperses a una alçada de 2500 ft

TAF: KEYW 151737Z 1518/1618 16010KT P6SM SCT025 FM152100 15007KT P6SM SCT025 FM161100 20007KT P6SM SCT025

Observacions i pronòstics meteorològics de més de 4000 aeroports (METAR i TAF).

Les estacions disponibles són els punts grocs i vermells al mapa.

Posi el ratolí al punt desitjat per veure el nom de l'estació.

Feu clic per veure les observacions i els pronòstics meteorològics.

Per canviar el mapa: feu clic els botons verds amb una creu de color negre per apropar; al botó verd amb un guió per allunyar la imatge; o en les fletxes verdes per a mapes adjacents.


METAR-TAF: